Kansas Settlement, Arizona
Current Conditions -  °F | °C
As of 8:51 AM on Wednesday 22 Oct 2014 (Local Time) from KSAD Reporting Station
Clear Clear  
Wind Chill: 68°   Ceiling: Unl
Heat Index: 68°   Visibility: 10mi
Dew Point: 52°   Wind: 10mph
Humidity: 56%   Direction: 120°ESE
Pressure: 30.08"   Gusts: NA
Location:  32.5598°N, 110.08°W
Report Text: KSAD 221551Z AUTO 12009KT 10SM CLR 20/11 A3008 RMK AO2 SLP151 T02000111
Loading
Personal Weather Stations






























Interactive Weather Map
Tropical Storm Tracking
New forecast layout! Learn more

10-Day Weather Forecast

Advertisements
Track Severe Weather on mobile